sensor_id;sensor_type;location;lat;lon;timestamp;pressure;altitude;pressure_sealevel;temperature;humidity
9335;BME280;4706;41.844;26.082;2023-02-03T00:00:39;101063.41;;;7.79;67.72
9335;BME280;4706;41.844;26.082;2023-02-03T00:03:05;101054.09;;;7.75;68.18
9335;BME280;4706;41.844;26.082;2023-02-03T00:05:32;101055.41;;;7.62;67.95
9335;BME280;4706;41.844;26.082;2023-02-03T00:07:59;101068.84;;;7.64;68.23
9335;BME280;4706;41.844;26.082;2023-02-03T00:10:24;101059.00;;;7.68;68.40
9335;BME280;4706;41.844;26.082;2023-02-03T00:12:50;101063.69;;;7.83;67.02
9335;BME280;4706;41.844;26.082;2023-02-03T00:15:20;101063.63;;;7.62;67.06
9335;BME280;4706;41.844;26.082;2023-02-03T00:17:47;101067.41;;;7.46;67.25
9335;BME280;4706;41.844;26.082;2023-02-03T00:20:13;101076.09;;;7.33;67.81
9335;BME280;4706;41.844;26.082;2023-02-03T00:22:38;101067.66;;;7.39;68.61
9335;BME280;4706;41.844;26.082;2023-02-03T00:25:04;101075.50;;;7.20;69.33
9335;BME280;4706;41.844;26.082;2023-02-03T00:27:31;101070.84;;;7.21;69.50
9335;BME280;4706;41.844;26.082;2023-02-03T00:29:56;101070.84;;;7.16;69.73
9335;BME280;4706;41.844;26.082;2023-02-03T00:32:22;101068.59;;;7.08;70.07
9335;BME280;4706;41.844;26.082;2023-02-03T00:34:47;101066.41;;;7.04;70.72
9335;BME280;4706;41.844;26.082;2023-02-03T00:37:13;101053.25;;;7.01;70.46
9335;BME280;4706;41.844;26.082;2023-02-03T00:39:39;101055.25;;;7.21;69.78
9335;BME280;4706;41.844;26.082;2023-02-03T00:42:05;101066.81;;;7.34;69.66
9335;BME280;4706;41.844;26.082;2023-02-03T00:44:31;101060.72;;;7.21;69.93
9335;BME280;4706;41.844;26.082;2023-02-03T00:46:57;101068.31;;;7.04;70.35
9335;BME280;4706;41.844;26.082;2023-02-03T00:49:23;101065.81;;;7.02;70.52
9335;BME280;4706;41.844;26.082;2023-02-03T00:51:49;101059.00;;;7.05;70.16
9335;BME280;4706;41.844;26.082;2023-02-03T00:54:15;101055.44;;;7.04;69.84
9335;BME280;4706;41.844;26.082;2023-02-03T00:56:41;101052.66;;;6.99;70.17
9335;BME280;4706;41.844;26.082;2023-02-03T00:59:07;101034.34;;;6.95;70.09
9335;BME280;4706;41.844;26.082;2023-02-03T01:01:33;101038.75;;;7.01;69.46
9335;BME280;4706;41.844;26.082;2023-02-03T01:03:59;101058.44;;;7.03;69.09
9335;BME280;4706;41.844;26.082;2023-02-03T01:06:25;101053.47;;;6.95;69.53
9335;BME280;4706;41.844;26.082;2023-02-03T01:08:51;101057.03;;;6.95;68.85
9335;BME280;4706;41.844;26.082;2023-02-03T01:11:20;101054.19;;;6.80;69.05
9335;BME280;4706;41.844;26.082;2023-02-03T01:13:46;101050.41;;;6.81;68.88
9335;BME280;4706;41.844;26.082;2023-02-03T01:16:15;101053.91;;;6.76;69.64
9335;BME280;4706;41.844;26.082;2023-02-03T01:18:41;101051.75;;;6.78;69.18
9335;BME280;4706;41.844;26.082;2023-02-03T01:21:11;101058.75;;;6.64;70.08
9335;BME280;4706;41.844;26.082;2023-02-03T01:23:37;101060.56;;;6.53;70.09
9335;BME280;4706;41.844;26.082;2023-02-03T01:26:05;101067.72;;;6.54;70.69
9335;BME280;4706;41.844;26.082;2023-02-03T01:28:31;101063.66;;;6.62;70.35
9335;BME280;4706;41.844;26.082;2023-02-03T01:30:57;101062.47;;;6.85;69.37
9335;BME280;4706;41.844;26.082;2023-02-03T01:33:32;101056.44;;;6.88;69.26
9335;BME280;4706;41.844;26.082;2023-02-03T01:35:59;101046.28;;;6.84;69.28
9335;BME280;4706;41.844;26.082;2023-02-03T01:38:25;101052.22;;;7.13;68.56
9335;BME280;4706;41.844;26.082;2023-02-03T01:40:50;101059.13;;;7.30;68.05
9335;BME280;4706;41.844;26.082;2023-02-03T01:43:36;101066.25;;;7.26;68.40
9335;BME280;4706;41.844;26.082;2023-02-03T01:48:36;101073.34;;;7.27;68.71
9335;BME280;4706;41.844;26.082;2023-02-03T01:51:03;101068.75;;;7.38;68.79
9335;BME280;4706;41.844;26.082;2023-02-03T01:53:30;101075.03;;;7.34;68.67
9335;BME280;4706;41.844;26.082;2023-02-03T01:55:57;101093.16;;;7.45;67.88
9335;BME280;4706;41.844;26.082;2023-02-03T01:58:29;101102.41;;;7.39;68.28
9335;BME280;4706;41.844;26.082;2023-02-03T02:00:57;101098.56;;;7.40;68.40
9335;BME280;4706;41.844;26.082;2023-02-03T02:03:37;101094.19;;;7.34;67.48
9335;BME280;4706;41.844;26.082;2023-02-03T02:06:07;101101.09;;;7.51;66.68
9335;BME280;4706;41.844;26.082;2023-02-03T02:08:34;101098.69;;;7.70;66.49
9335;BME280;4706;41.844;26.082;2023-02-03T02:11:00;101100.19;;;7.36;66.82
9335;BME280;4706;41.844;26.082;2023-02-03T02:13:28;101095.84;;;7.40;66.54
9335;BME280;4706;41.844;26.082;2023-02-03T02:16:21;101090.66;;;7.43;66.95
9335;BME280;4706;41.844;26.082;2023-02-03T02:22:24;101072.19;;;7.18;67.71
9335;BME280;4706;41.844;26.082;2023-02-03T02:33:27;101089.19;;;6.78;68.73
9335;BME280;4706;41.844;26.082;2023-02-03T02:36:20;101097.59;;;6.66;69.96
9335;BME280;4706;41.844;26.082;2023-02-03T02:38:50;101101.38;;;6.65;68.97
9335;BME280;4706;41.844;26.082;2023-02-03T02:41:38;101105.91;;;6.49;69.20
9335;BME280;4706;41.844;26.082;2023-02-03T02:44:28;101113.78;;;6.41;69.51
9335;BME280;4706;41.844;26.082;2023-02-03T02:47:19;101118.31;;;6.30;70.83
9335;BME280;4706;41.844;26.082;2023-02-03T02:49:59;101114.75;;;6.29;70.17
9335;BME280;4706;41.844;26.082;2023-02-03T02:52:30;101122.50;;;6.43;70.35
9335;BME280;4706;41.844;26.082;2023-02-03T02:55:00;101122.44;;;6.32;70.74
9335;BME280;4706;41.844;26.082;2023-02-03T02:57:27;101110.38;;;6.61;69.57
9335;BME280;4706;41.844;26.082;2023-02-03T02:59:55;101110.47;;;6.71;68.26
9335;BME280;4706;41.844;26.082;2023-02-03T03:02:21;101112.13;;;6.77;68.00
9335;BME280;4706;41.844;26.082;2023-02-03T03:04:48;101119.63;;;6.92;67.41
9335;BME280;4706;41.844;26.082;2023-02-03T03:07:23;101134.25;;;7.08;67.46
9335;BME280;4706;41.844;26.082;2023-02-03T03:10:02;101135.47;;;6.85;67.34
9335;BME280;4706;41.844;26.082;2023-02-03T03:12:34;101142.41;;;7.02;66.60
9335;BME280;4706;41.844;26.082;2023-02-03T03:15:24;101145.72;;;7.04;67.11
9335;BME280;4706;41.844;26.082;2023-02-03T03:18:14;101130.34;;;6.98;67.34
9335;BME280;4706;41.844;26.082;2023-02-03T03:20:40;101139.31;;;6.89;67.90
9335;BME280;4706;41.844;26.082;2023-02-03T03:23:12;101128.53;;;6.77;68.04
9335;BME280;4706;41.844;26.082;2023-02-03T03:25:45;101132.63;;;6.74;68.20
9335;BME280;4706;41.844;26.082;2023-02-03T03:28:16;101138.66;;;6.76;68.07
9335;BME280;4706;41.844;26.082;2023-02-03T03:30:45;101128.31;;;6.84;68.16
9335;BME280;4706;41.844;26.082;2023-02-03T03:33:10;101126.41;;;6.84;68.37
9335;BME280;4706;41.844;26.082;2023-02-03T03:35:53;101118.50;;;6.88;68.04
9335;BME280;4706;41.844;26.082;2023-02-03T03:38:25;101124.53;;;6.85;67.67
9335;BME280;4706;41.844;26.082;2023-02-03T03:41:15;101113.16;;;6.66;67.69
9335;BME280;4706;41.844;26.082;2023-02-03T03:43:46;101133.50;;;6.48;67.58
9335;BME280;4706;41.844;26.082;2023-02-03T03:46:16;101139.09;;;6.63;67.38
9335;BME280;4706;41.844;26.082;2023-02-03T03:48:54;101155.19;;;6.60;67.65
9335;BME280;4706;41.844;26.082;2023-02-03T03:53:53;101162.13;;;6.72;67.93
9335;BME280;4706;41.844;26.082;2023-02-03T03:56:31;101165.13;;;6.71;68.02
9335;BME280;4706;41.844;26.082;2023-02-03T03:59:01;101154.91;;;6.56;67.46
9335;BME280;4706;41.844;26.082;2023-02-03T04:01:29;101171.50;;;6.49;68.26
9335;BME280;4706;41.844;26.082;2023-02-03T04:03:58;101170.03;;;6.37;68.76
9335;BME280;4706;41.844;26.082;2023-02-03T04:06:25;101174.19;;;6.44;68.36
9335;BME280;4706;41.844;26.082;2023-02-03T04:08:50;101178.59;;;6.23;68.61
9335;BME280;4706;41.844;26.082;2023-02-03T04:11:16;101167.50;;;6.30;68.13
9335;BME280;4706;41.844;26.082;2023-02-03T04:14:03;101166.50;;;6.41;67.02
9335;BME280;4706;41.844;26.082;2023-02-03T04:16:29;101170.63;;;6.44;67.14
9335;BME280;4706;41.844;26.082;2023-02-03T04:18:54;101170.38;;;6.18;67.98
9335;BME280;4706;41.844;26.082;2023-02-03T04:21:20;101181.06;;;5.98;69.40
9335;BME280;4706;41.844;26.082;2023-02-03T04:23:45;101181.31;;;5.96;69.95
9335;BME280;4706;41.844;26.082;2023-02-03T04:26:11;101188.69;;;5.96;69.75
9335;BME280;4706;41.844;26.082;2023-02-03T04:28:37;101187.19;;;5.88;69.36
9335;BME280;4706;41.844;26.082;2023-02-03T04:31:02;101203.31;;;5.68;70.14
9335;BME280;4706;41.844;26.082;2023-02-03T04:33:28;101212.94;;;5.75;70.26
9335;BME280;4706;41.844;26.082;2023-02-03T04:35:53;101208.34;;;5.76;69.74
9335;BME280;4706;41.844;26.082;2023-02-03T04:38:18;101215.88;;;5.69;70.05
9335;BME280;4706;41.844;26.082;2023-02-03T04:40:44;101214.94;;;5.80;70.21
9335;BME280;4706;41.844;26.082;2023-02-03T04:43:10;101223.59;;;5.55;71.07
9335;BME280;4706;41.844;26.082;2023-02-03T04:45:36;101233.56;;;5.27;72.06
9335;BME280;4706;41.844;26.082;2023-02-03T04:48:02;101227.53;;;5.25;72.10
9335;BME280;4706;41.844;26.082;2023-02-03T04:50:29;101234.72;;;5.31;72.61
9335;BME280;4706;41.844;26.082;2023-02-03T04:52:55;101247.50;;;5.48;71.92
9335;BME280;4706;41.844;26.082;2023-02-03T04:55:25;101241.75;;;5.10;72.28
9335;BME280;4706;41.844;26.082;2023-02-03T04:57:55;101235.16;;;5.23;72.12
9335;BME280;4706;41.844;26.082;2023-02-03T05:00:20;101213.16;;;5.13;72.10
9335;BME280;4706;41.844;26.082;2023-02-03T05:02:46;101232.09;;;5.20;73.14
9335;BME280;4706;41.844;26.082;2023-02-03T05:05:11;101237.13;;;5.28;73.72
9335;BME280;4706;41.844;26.082;2023-02-03T05:07:37;101245.47;;;5.38;73.66
9335;BME280;4706;41.844;26.082;2023-02-03T05:10:03;101229.38;;;5.58;73.73
9335;BME280;4706;41.844;26.082;2023-02-03T05:12:29;101226.91;;;5.79;73.12
9335;BME280;4706;41.844;26.082;2023-02-03T05:14:54;101233.72;;;5.76;73.43
9335;BME280;4706;41.844;26.082;2023-02-03T05:17:20;101242.22;;;5.97;72.77
9335;BME280;4706;41.844;26.082;2023-02-03T05:19:45;101241.97;;;5.81;72.67
9335;BME280;4706;41.844;26.082;2023-02-03T05:22:11;101248.91;;;5.89;71.75
9335;BME280;4706;41.844;26.082;2023-02-03T05:24:36;101257.84;;;5.84;71.72
9335;BME280;4706;41.844;26.082;2023-02-03T05:27:02;101277.41;;;5.76;72.14
9335;BME280;4706;41.844;26.082;2023-02-03T05:29:27;101281.34;;;5.85;71.27
9335;BME280;4706;41.844;26.082;2023-02-03T05:31:53;101285.66;;;5.81;70.10
9335;BME280;4706;41.844;26.082;2023-02-03T05:34:18;101279.34;;;5.42;73.03
9335;BME280;4706;41.844;26.082;2023-02-03T05:36:44;101279.69;;;5.29;74.15
9335;BME280;4706;41.844;26.082;2023-02-03T05:39:09;101271.97;;;5.26;72.97
9335;BME280;4706;41.844;26.082;2023-02-03T05:41:35;101274.31;;;5.17;73.89
9335;BME280;4706;41.844;26.082;2023-02-03T05:44:23;101277.09;;;5.22;73.87
9335;BME280;4706;41.844;26.082;2023-02-03T05:46:51;101281.09;;;5.31;74.09
9335;BME280;4706;41.844;26.082;2023-02-03T05:49:17;101276.69;;;5.14;75.06
9335;BME280;4706;41.844;26.082;2023-02-03T05:51:45;101281.16;;;5.36;74.38
9335;BME280;4706;41.844;26.082;2023-02-03T05:54:10;101280.75;;;5.45;73.41
9335;BME280;4706;41.844;26.082;2023-02-03T05:56:36;101285.16;;;5.46;74.33
9335;BME280;4706;41.844;26.082;2023-02-03T05:59:02;101287.84;;;5.63;74.23
9335;BME280;4706;41.844;26.082;2023-02-03T06:01:28;101292.09;;;5.75;74.13
9335;BME280;4706;41.844;26.082;2023-02-03T06:03:53;101303.44;;;5.84;73.02
9335;BME280;4706;41.844;26.082;2023-02-03T06:06:19;101319.00;;;5.83;72.63
9335;BME280;4706;41.844;26.082;2023-02-03T06:08:44;101317.25;;;5.77;72.60
9335;BME280;4706;41.844;26.082;2023-02-03T06:11:10;101320.66;;;5.68;72.61
9335;BME280;4706;41.844;26.082;2023-02-03T06:13:36;101320.75;;;5.73;72.32
9335;BME280;4706;41.844;26.082;2023-02-03T06:16:02;101328.22;;;5.94;73.35
9335;BME280;4706;41.844;26.082;2023-02-03T06:18:28;101329.59;;;5.97;72.68
9335;BME280;4706;41.844;26.082;2023-02-03T06:20:54;101339.25;;;5.88;73.34
9335;BME280;4706;41.844;26.082;2023-02-03T06:23:19;101332.97;;;5.87;73.47
9335;BME280;4706;41.844;26.082;2023-02-03T06:25:47;101321.75;;;6.22;72.09
9335;BME280;4706;41.844;26.082;2023-02-03T06:28:13;101310.03;;;6.05;72.02
9335;BME280;4706;41.844;26.082;2023-02-03T06:30:38;101323.38;;;6.01;73.62
9335;BME280;4706;41.844;26.082;2023-02-03T06:33:04;101331.00;;;5.99;72.99
9335;BME280;4706;41.844;26.082;2023-02-03T06:35:29;101343.34;;;6.02;72.53
9335;BME280;4706;41.844;26.082;2023-02-03T06:37:55;101332.41;;;6.02;73.43
9335;BME280;4706;41.844;26.082;2023-02-03T06:40:21;101336.94;;;6.13;73.26
9335;BME280;4706;41.844;26.082;2023-02-03T06:42:46;101347.72;;;6.03;73.60
9335;BME280;4706;41.844;26.082;2023-02-03T06:45:13;101340.53;;;6.19;73.05
9335;BME280;4706;41.844;26.082;2023-02-03T06:47:40;101357.41;;;6.32;72.28
9335;BME280;4706;41.844;26.082;2023-02-03T06:50:06;101353.22;;;6.25;72.15
9335;BME280;4706;41.844;26.082;2023-02-03T06:52:31;101355.94;;;6.25;73.03
9335;BME280;4706;41.844;26.082;2023-02-03T06:54:57;101361.28;;;6.37;72.57
9335;BME280;4706;41.844;26.082;2023-02-03T06:57:23;101365.03;;;6.52;72.10
9335;BME280;4706;41.844;26.082;2023-02-03T06:59:48;101358.50;;;6.80;72.09
9335;BME280;4706;41.844;26.082;2023-02-03T07:02:14;101374.19;;;6.63;72.74
9335;BME280;4706;41.844;26.082;2023-02-03T07:04:40;101368.41;;;6.60;72.77
9335;BME280;4706;41.844;26.082;2023-02-03T07:07:07;101358.88;;;6.62;72.92
9335;BME280;4706;41.844;26.082;2023-02-03T07:09:33;101365.97;;;6.63;72.61
9335;BME280;4706;41.844;26.082;2023-02-03T07:11:58;101368.59;;;6.75;73.14
9335;BME280;4706;41.844;26.082;2023-02-03T07:14:24;101362.28;;;6.52;73.74
9335;BME280;4706;41.844;26.082;2023-02-03T07:16:49;101368.84;;;6.51;74.49
9335;BME280;4706;41.844;26.082;2023-02-03T07:19:15;101370.22;;;6.54;74.28
9335;BME280;4706;41.844;26.082;2023-02-03T07:21:40;101370.81;;;6.56;74.58
9335;BME280;4706;41.844;26.082;2023-02-03T07:24:06;101383.16;;;6.59;74.73
9335;BME280;4706;41.844;26.082;2023-02-03T07:26:31;101380.75;;;6.62;74.23
9335;BME280;4706;41.844;26.082;2023-02-03T07:28:57;101391.53;;;6.74;73.15
9335;BME280;4706;41.844;26.082;2023-02-03T07:31:24;101391.00;;;6.77;72.46
9335;BME280;4706;41.844;26.082;2023-02-03T07:33:50;101395.41;;;6.78;72.98
9335;BME280;4706;41.844;26.082;2023-02-03T07:36:15;101385.69;;;6.65;73.42
9335;BME280;4706;41.844;26.082;2023-02-03T07:38:41;101385.50;;;6.72;73.79
9335;BME280;4706;41.844;26.082;2023-02-03T07:41:06;101395.31;;;6.95;72.33
9335;BME280;4706;41.844;26.082;2023-02-03T07:43:32;101397.50;;;6.93;72.79
9335;BME280;4706;41.844;26.082;2023-02-03T07:45:58;101398.31;;;7.15;72.68
9335;BME280;4706;41.844;26.082;2023-02-03T07:48:23;101406.81;;;7.19;73.29
9335;BME280;4706;41.844;26.082;2023-02-03T07:50:49;101415.13;;;7.29;73.79
9335;BME280;4706;41.844;26.082;2023-02-03T07:53:15;101422.31;;;7.35;74.17
9335;BME280;4706;41.844;26.082;2023-02-03T07:55:41;101412.97;;;7.63;78.34
9335;BME280;4706;41.844;26.082;2023-02-03T07:58:07;101422.09;;;7.74;77.49
9335;BME280;4706;41.844;26.082;2023-02-03T08:00:33;101417.47;;;8.12;74.71
9335;BME280;4706;41.844;26.082;2023-02-03T08:02:58;101419.06;;;8.08;74.39
9335;BME280;4706;41.844;26.082;2023-02-03T08:05:24;101416.56;;;8.01;72.86
9335;BME280;4706;41.844;26.082;2023-02-03T08:07:49;101412.69;;;7.97;73.75
9335;BME280;4706;41.844;26.082;2023-02-03T08:10:15;101405.84;;;7.94;74.25
9335;BME280;4706;41.844;26.082;2023-02-03T08:12:42;101408.63;;;8.04;74.35
9335;BME280;4706;41.844;26.082;2023-02-03T08:15:09;101411.72;;;8.13;73.59
9335;BME280;4706;41.844;26.082;2023-02-03T08:17:35;101409.91;;;8.29;72.41
9335;BME280;4706;41.844;26.082;2023-02-03T08:20:01;101405.84;;;8.37;71.65
9335;BME280;4706;41.844;26.082;2023-02-03T08:22:26;101401.28;;;8.47;71.74
9335;BME280;4706;41.844;26.082;2023-02-03T08:24:52;101410.59;;;8.46;71.03
9335;BME280;4706;41.844;26.082;2023-02-03T08:27:19;101408.41;;;8.48;71.42
9335;BME280;4706;41.844;26.082;2023-02-03T08:29:46;101403.78;;;8.54;71.61
9335;BME280;4706;41.844;26.082;2023-02-03T08:32:17;101405.97;;;8.57;72.37
9335;BME280;4706;41.844;26.082;2023-02-03T08:34:43;101402.47;;;8.67;72.24
9335;BME280;4706;41.844;26.082;2023-02-03T08:37:09;101402.75;;;8.75;72.64
9335;BME280;4706;41.844;26.082;2023-02-03T08:39:36;101405.25;;;8.82;71.98
9335;BME280;4706;41.844;26.082;2023-02-03T08:42:02;101399.00;;;8.97;70.08
9335;BME280;4706;41.844;26.082;2023-02-03T08:44:31;101400.41;;;9.10;70.02
9335;BME280;4706;41.844;26.082;2023-02-03T08:46:57;101396.25;;;9.02;69.57
9335;BME280;4706;41.844;26.082;2023-02-03T08:49:25;101391.88;;;9.06;68.91
9335;BME280;4706;41.844;26.082;2023-02-03T08:51:52;101410.34;;;9.26;69.64
9335;BME280;4706;41.844;26.082;2023-02-03T08:54:18;101418.06;;;9.49;69.44
9335;BME280;4706;41.844;26.082;2023-02-03T08:56:44;101407.34;;;9.73;69.12
9335;BME280;4706;41.844;26.082;2023-02-03T08:59:10;101411.47;;;9.96;68.99
9335;BME280;4706;41.844;26.082;2023-02-03T09:01:35;101408.97;;;10.15;67.77
9335;BME280;4706;41.844;26.082;2023-02-03T09:04:01;101418.03;;;10.41;66.55
9335;BME280;4706;41.844;26.082;2023-02-03T09:06:29;101418.50;;;10.64;65.22
9335;BME280;4706;41.844;26.082;2023-02-03T09:08:55;101394.53;;;10.75;65.36
9335;BME280;4706;41.844;26.082;2023-02-03T09:11:21;101421.91;;;11.10;63.04
9335;BME280;4706;41.844;26.082;2023-02-03T09:13:47;101419.00;;;11.31;62.66
9335;BME280;4706;41.844;26.082;2023-02-03T09:16:16;101421.00;;;11.64;60.95
9335;BME280;4706;41.844;26.082;2023-02-03T09:18:43;101409.97;;;11.64;57.58
9335;BME280;4706;41.844;26.082;2023-02-03T09:21:10;101412.91;;;11.73;60.87
9335;BME280;4706;41.844;26.082;2023-02-03T09:23:37;101402.09;;;11.87;56.76
9335;BME280;4706;41.844;26.082;2023-02-03T09:26:04;101403.94;;;11.97;58.12
9335;BME280;4706;41.844;26.082;2023-02-03T09:28:30;101403.81;;;12.12;55.51
9335;BME280;4706;41.844;26.082;2023-02-03T09:31:04;101411.28;;;12.06;57.44
9335;BME280;4706;41.844;26.082;2023-02-03T09:33:30;101394.09;;;12.14;55.61
9335;BME280;4706;41.844;26.082;2023-02-03T09:35:56;101410.63;;;12.44;54.91
9335;BME280;4706;41.844;26.082;2023-02-03T09:38:23;101401.91;;;12.60;52.72
9335;BME280;4706;41.844;26.082;2023-02-03T09:40:52;101386.44;;;12.59;52.96
9335;BME280;4706;41.844;26.082;2023-02-03T09:45:53;101384.66;;;12.93;51.87
9335;BME280;4706;41.844;26.082;2023-02-03T09:48:40;101385.09;;;12.81;50.26
9335;BME280;4706;41.844;26.082;2023-02-03T09:51:17;101383.63;;;13.07;48.60
9335;BME280;4706;41.844;26.082;2023-02-03T09:53:49;101378.31;;;13.11;49.48
9335;BME280;4706;41.844;26.082;2023-02-03T09:56:28;101367.13;;;13.02;47.64
9335;BME280;4706;41.844;26.082;2023-02-03T09:58:54;101374.66;;;13.16;49.15
9335;BME280;4706;41.844;26.082;2023-02-03T10:01:21;101368.72;;;13.27;49.35
9335;BME280;4706;41.844;26.082;2023-02-03T10:03:53;101364.25;;;13.31;48.38
9335;BME280;4706;41.844;26.082;2023-02-03T10:06:25;101365.72;;;13.24;47.50
9335;BME280;4706;41.844;26.082;2023-02-03T10:20:00;101345.22;;;14.37;43.35
9335;BME280;4706;41.844;26.082;2023-02-03T10:22:25;101346.41;;;14.49;43.64
9335;BME280;4706;41.844;26.082;2023-02-03T10:27:33;101348.84;;;14.51;44.55
9335;BME280;4706;41.844;26.082;2023-02-03T10:30:03;101326.91;;;14.54;43.72
9335;BME280;4706;41.844;26.082;2023-02-03T10:32:30;101338.22;;;14.94;44.16
9335;BME280;4706;41.844;26.082;2023-02-03T10:34:56;101326.28;;;15.07;43.11
9335;BME280;4706;41.844;26.082;2023-02-03T10:37:29;101333.16;;;15.10;43.07
9335;BME280;4706;41.844;26.082;2023-02-03T10:39:56;101328.97;;;15.35;41.95
9335;BME280;4706;41.844;26.082;2023-02-03T10:42:24;101314.72;;;15.28;40.48
9335;BME280;4706;41.844;26.082;2023-02-03T10:44:58;101320.63;;;15.13;41.47
9335;BME280;4706;41.844;26.082;2023-02-03T10:47:31;101328.06;;;15.26;40.82
9335;BME280;4706;41.844;26.082;2023-02-03T10:50:03;101329.53;;;15.46;39.40
9335;BME280;4706;41.844;26.082;2023-02-03T10:52:31;101324.81;;;15.69;38.49
9335;BME280;4706;41.844;26.082;2023-02-03T10:55:04;101320.38;;;15.90;39.31
9335;BME280;4706;41.844;26.082;2023-02-03T10:57:34;101306.13;;;16.14;38.00
9335;BME280;4706;41.844;26.082;2023-02-03T11:00:30;101308.34;;;15.95;37.50
9335;BME280;4706;41.844;26.082;2023-02-03T11:03:13;101301.69;;;15.28;36.77
9335;BME280;4706;41.844;26.082;2023-02-03T11:05:41;101302.53;;;15.15;38.83
9335;BME280;4706;41.844;26.082;2023-02-03T11:08:15;101292.56;;;14.92;38.82
9335;BME280;4706;41.844;26.082;2023-02-03T11:10:41;101307.59;;;15.13;39.54
9335;BME280;4706;41.844;26.082;2023-02-03T11:13:14;101298.72;;;15.25;36.92
9335;BME280;4706;41.844;26.082;2023-02-03T11:15:54;101300.06;;;15.27;39.49
9335;BME280;4706;41.844;26.082;2023-02-03T11:18:41;101298.84;;;15.65;39.18
9335;BME280;4706;41.844;26.082;2023-02-03T11:21:27;101287.06;;;15.90;37.48
9335;BME280;4706;41.844;26.082;2023-02-03T11:26:43;101295.56;;;16.34;36.86
9335;BME280;4706;41.844;26.082;2023-02-03T11:29:19;101289.84;;;16.39;36.58
9335;BME280;4706;41.844;26.082;2023-02-03T11:31:48;101285.97;;;16.48;36.68
9335;BME280;4706;41.844;26.082;2023-02-03T11:34:18;101289.09;;;16.56;36.56
9335;BME280;4706;41.844;26.082;2023-02-03T11:36:45;101292.53;;;16.61;36.51
9335;BME280;4706;41.844;26.082;2023-02-03T11:39:30;101284.25;;;16.79;35.50
9335;BME280;4706;41.844;26.082;2023-02-03T11:42:00;101281.63;;;16.73;35.96
9335;BME280;4706;41.844;26.082;2023-02-03T11:44:28;101280.44;;;16.57;36.04
9335;BME280;4706;41.844;26.082;2023-02-03T11:54:52;101278.81;;;16.65;35.84
9335;BME280;4706;41.844;26.082;2023-02-03T11:57:34;101275.16;;;16.38;35.95
9335;BME280;4706;41.844;26.082;2023-02-03T12:13:30;101253.31;;;15.35;37.44
9335;BME280;4706;41.844;26.082;2023-02-03T12:19:07;101244.03;;;16.01;36.36
9335;BME280;4706;41.844;26.082;2023-02-03T12:21:45;101254.28;;;16.41;34.19
9335;BME280;4706;41.844;26.082;2023-02-03T12:27:00;101252.66;;;16.57;32.75
9335;BME280;4706;41.844;26.082;2023-02-03T12:29:40;101268.34;;;16.62;32.92
9335;BME280;4706;41.844;26.082;2023-02-03T12:32:18;101264.22;;;16.33;33.06
9335;BME280;4706;41.844;26.082;2023-02-03T12:34:56;101250.44;;;16.11;32.44
9335;BME280;4706;41.844;26.082;2023-02-03T12:37:32;101271.69;;;16.15;32.74
9335;BME280;4706;41.844;26.082;2023-02-03T12:40:08;101258.41;;;16.03;33.06
9335;BME280;4706;41.844;26.082;2023-02-03T12:42:46;101262.66;;;16.10;32.54
9335;BME280;4706;41.844;26.082;2023-02-03T12:45:22;101266.28;;;16.19;32.68
9335;BME280;4706;41.844;26.082;2023-02-03T12:47:54;101263.53;;;16.19;32.34
9335;BME280;4706;41.844;26.082;2023-02-03T12:50:38;101267.63;;;16.21;32.54
9335;BME280;4706;41.844;26.082;2023-02-03T12:53:33;101265.66;;;16.22;32.32
9335;BME280;4706;41.844;26.082;2023-02-03T12:56:08;101259.94;;;16.18;32.78
9335;BME280;4706;41.844;26.082;2023-02-03T13:12:12;101249.19;;;16.34;33.14
9335;BME280;4706;41.844;26.082;2023-02-03T13:14:45;101254.19;;;16.06;33.91
9335;BME280;4706;41.844;26.082;2023-02-03T13:19:53;101259.56;;;15.49;34.99
9335;BME280;4706;41.844;26.082;2023-02-03T13:22:24;101254.13;;;15.35;34.73
9335;BME280;4706;41.844;26.082;2023-02-03T13:25:42;101249.84;;;15.29;34.58
9335;BME280;4706;41.844;26.082;2023-02-03T13:28:30;101247.88;;;15.29;35.16
9335;BME280;4706;41.844;26.082;2023-02-03T13:44:15;101256.16;;;14.34;37.09
9335;BME280;4706;41.844;26.082;2023-02-03T13:46:46;101259.66;;;14.26;36.94
9335;BME280;4706;41.844;26.082;2023-02-03T13:49:48;101254.94;;;14.13;37.78
9335;BME280;4706;41.844;26.082;2023-02-03T13:52:28;101232.00;;;14.13;38.03
9335;BME280;4706;41.844;26.082;2023-02-03T13:54:57;101235.09;;;14.11;37.85
9335;BME280;4706;41.844;26.082;2023-02-03T13:57:30;101233.22;;;14.06;37.48
9335;BME280;4706;41.844;26.082;2023-02-03T13:59:59;101235.28;;;14.01;37.28
9335;BME280;4706;41.844;26.082;2023-02-03T14:04:55;101224.03;;;13.70;37.83
9335;BME280;4706;41.844;26.082;2023-02-03T14:12:54;101224.38;;;13.49;39.12
9335;BME280;4706;41.844;26.082;2023-02-03T14:20:40;101232.38;;;13.51;38.45
9335;BME280;4706;41.844;26.082;2023-02-03T14:25:44;101219.84;;;13.26;37.42
9335;BME280;4706;41.844;26.082;2023-02-03T14:28:14;101226.63;;;13.15;38.17
9335;BME280;4706;41.844;26.082;2023-02-03T14:31:03;101235.28;;;13.08;38.46
9335;BME280;4706;41.844;26.082;2023-02-03T14:36:42;101224.84;;;13.05;39.80
9335;BME280;4706;41.844;26.082;2023-02-03T14:47:25;101234.53;;;12.70;41.01
9335;BME280;4706;41.844;26.082;2023-02-03T14:55:44;101237.59;;;12.68;46.17
9335;BME280;4706;41.844;26.082;2023-02-03T14:58:27;101228.75;;;12.85;49.49
9335;BME280;4706;41.844;26.082;2023-02-03T15:00:54;101224.69;;;13.15;44.96
9335;BME280;4706;41.844;26.082;2023-02-03T15:03:22;101229.00;;;13.21;43.01
9335;BME280;4706;41.844;26.082;2023-02-03T15:11:26;101223.81;;;13.01;41.98
9335;BME280;4706;41.844;26.082;2023-02-03T15:13:53;101225.84;;;12.95;41.55
9335;BME280;4706;41.844;26.082;2023-02-03T15:16:21;101230.13;;;12.87;42.02
9335;BME280;4706;41.844;26.082;2023-02-03T15:19:17;101234.16;;;12.76;41.79
9335;BME280;4706;41.844;26.082;2023-02-03T15:21:44;101231.16;;;12.73;42.22
9335;BME280;4706;41.844;26.082;2023-02-03T15:24:15;101240.94;;;12.46;42.65
9335;BME280;4706;41.844;26.082;2023-02-03T15:26:45;101238.53;;;12.39;43.08
9335;BME280;4706;41.844;26.082;2023-02-03T15:29:27;101239.50;;;12.30;43.45
9335;BME280;4706;41.844;26.082;2023-02-03T15:32:26;101248.56;;;12.11;43.19